KOZW

Livingston County Spencer J Hardy Airport

Howell, Michigan, USA
METAR KOZW 191055Z AUTO 05005KT 7SM OVC005 18/17 A3004 RMK AO2 T01760169
Observed Flight Rules
Sep-19 @ 10:55 UTC (23 minutes ago) Instrument Flight Rules
Wind Visibility Clouds
50° at 5 knots 7 miles
  • Overcast at 500' AGL
Temperatures Readings
Current 18°C / 64°F
Dewpoint 17°C / 63°F
Humidity 94%
Altimeter 30.04" Hg
Pressure 1017 hPa
Elevation 293
METAR KOZW 191055Z AUTO 05005KT 7SM OVC005 18/17 A3004 RMK AO2 T01760169
Observed Flight Rules
Sep-19 @ 10:55 UTC
(23 minutes ago)
IFR
Wind Visibility
50° at 5 knots 7 miles
Clouds
  • Overcast at 500' AGL
Temperature Dewpoint
18°C / 64°F 17°C / 63°F
Humidity Altimeter Pressure
94% 30.04" Hg 1017 hPa